Aktualne dane pomiarowe

Uwaga, wersja testowa! Automatyczne pobieranie danych za pomocą narzędzi lub skryptów to umożliwiających jest zabronione.

Dane meteo z obszaru Polski uzyskane na podstawie depesz SYNOP pobieranych co godzinę z NWS. Najedź myszką na symbol przedstawiony w tabeli, aby uzyskać informacje co do jego znaczenia. Prosimy pamiętać, że to testowa wersja strony, która jeszcze nie jest ukończona. Stworzono również jest krótki FAQ dotyczący korzystania z tej podstrony Anomalie temperatury w chwili obecnej odniesione są do okresu referencyjnego 1951-2016. Okres ten będzie później zmieniony na 1981-2010. Kliknij ikonę aby pobrać plik CSV. Kliknij ikonę aby wygenerować mapę synoptyczną dla danego terminu.

Wybierz Datę:    

        

Rzeszów-Jasionka (12580)

Dane terminowe dla wybranej stacji. Kliknij datę, aby otrzymać dane z tego terminu dla wszystkich stacji.

TemperaturaZachmurzenieWiatrCiśnienieOpadyPogoda
 Data t td wb tx tn tg rh  Nt Nl Cl Cm Ch ws wd g1 g2 wx mslp ppp ch 24h 12h t ww ww w1 w2  
2019-07-07 23:00:00 12.7 9.3 10.5--- 8030.0wxwxwxwx3wx--31010.6 984.7 1.9---------
2019-07-07 22:00:00 14.4 9.6 11.4--- 7330.0wxwxwxwx4wx--41009.9 984.2 1.7---------
2019-07-07 21:00:00 13.9 12.1 12.6--- 8930.0wxwxwxwx3wx--31009.1 983.4 1.5---------
2019-07-07 20:00:00 16.2 12.6 13.8--- 7930.0wxwxwx3wx--31008.3 982.8 0.8---------
2019-07-07 19:00:00 16.0 13.3 14.1--- 8430.0wxwxwxwxwx3wx---1008.0 982.5 0.9---------
2019-07-07 18:00:00 18.8 12.8 14.9 26.6 17.8- 6830.0wxwxwxwx3wx-1231007.2 981.9 0.5--12wx-w1--
2019-07-07 17:00:00 18.2 12.9 14.8--- 7130.0wxwxwx3wx---1007.3 982.0 0.7---wx---
2019-07-07 16:00:00 19.9 12.2 15.1--- 6130.0wxwxwxwx5wx---1006.8 981.6 1.6---------
2019-07-07 15:00:00 21.7 12.8 16.1--- 5730.0wxwxwxwx4wx-1241006.4 981.4 1.1---------
2019-07-07 14:00:00 21.4 14.1 16.7--- 6330.0wxwxwxwx7wx-1271006.3 981.3 1.1---------
2019-07-07 13:00:00 25.6 12.1 17.4--- 4330.0wxwxwxwx5wx10--1004.6 980.0 -0.6---------
2019-07-07 12:00:00 24.6 12.9 17.4--- 4830.0wxwxwxwx5wx-851005.0 980.3 -0.5- 0.06------
2019-07-07 11:00:00 25.9 11.6 17.3--- 4130.0wxwxwxwxwx3wx---1004.8 980.2 -0.4---------
2019-07-07 10:00:00 25.1 12.0 17.1--- 4430.0wxwxwxwxwx2wx--21005.3 980.6 0.0---------
2019-07-07 09:00:00 24.2 11.2 16.4--- 4430.0wxwxwxwxwx3wx--31005.6 980.8 -0.1---------
2019-07-07 08:00:00 23.4 11.8 16.3--- 4830.0wxwxwxwxwx3wx--31005.4 980.6 0.0---------
2019-07-07 07:00:00 22.8 12.1 16.2--- 5130.0wx-wxwx3wx--31005.5 980.6 0.6---------
2019-07-07 06:00:00 21.3 13.0 16.1 23.6 16.9 14 5930.0wx-wxwx2wx--21005.9 980.9 1.1- 0.012------
2019-07-07 05:00:00 20.2 12.2 15.2--- 6030.0wx-wxwx3wx--31005.7 980.6 1.3---------
2019-07-07 04:00:00 18.0 11.8 14.1--- 6730.0wx-wxwx2wx--21005.3 980.0 0.4---------
2019-07-07 03:00:00 18.2 11.0 13.7--- 6330.0wx-wxwx4wx--41005.1 979.8 -0.2---------
2019-07-07 02:00:00 18.2 10.6 13.5--- 6130.0wx-wx4wx--41004.5 979.3 -0.8---------
2019-07-07 01:00:00 19.4 10.7 14.1--- 5730.0wx-wx4wx---1004.7 979.6 -0.7---------
2019-07-07 00:00:00 20.0 11.2 14.6--- 5730.0wxwxwxwx3wx--31005.1 980.0 -0.7- 0.06------
2019-07-06 23:00:00 18.0 12.4 14.4--- 7030.0wx-wx1wx--11005.4 980.1 -1.0---------
2019-07-06 22:00:00 18.5 12.9 14.9--- 7030.0wx-wx3wx--31005.5 980.3 -1.3---------
2019-07-06 21:00:00 20.1 13.5 15.8--- 6630.0wx-wx1wx--11005.8 980.7 -1.0---------
2019-07-06 20:00:00 20.4 13.6 16.0--- 6530.0wx-wx2wx--21006.2 981.1 -1.3---------
2019-07-06 19:00:00 21.6 13.8 16.6--- 6130.0wx-wx1wx--11006.6 981.6 -1.1---------
2019-07-06 18:00:00 23.6 13.2 17.1 26.4 17.7- 5230.0wxwxwxwx3wx--31006.5 981.7 -1.6- 0.012------
2019-07-06 17:00:00 25.3 11.1 16.8--- 4130.0wxwxwxwxwx2wx--21007.1 982.4 -1.4---------
2019-07-06 16:00:00 25.4 10.4 16.5--- 3930.0wxwxwxwxwx4wx--41007.4 982.7 -1.6---------
2019-07-06 15:00:00 25.0 11.5 16.9--- 4330.0wxwxwxwxwx4wx--41008.1 983.3 -1.6---------
2019-07-06 14:00:00 25.6 10.6 16.7--- 3930.0wxwxwx3wx--31008.5 983.8 -1.6---------
2019-07-06 13:00:00 24.5 10.0 16.0--- 4030.0wxwxwxwxwx4wx--41009.1 984.3 -1.6---------
2019-07-06 12:00:00 23.5 9.5 15.3--- 4130.0wxwxwxwxwx6wx-1361009.8 984.9 -1.7- 0.06------
2019-07-06 11:00:00 23.9 10.2 15.8--- 4230.0wxwxwxwxwx6wx-1361010.3 985.4 -1.6---------
2019-07-06 10:00:00 23.8 11.1 16.2--- 4530.0wxwxwxwxwx6wx131361010.8 985.9 -1.1---------
2019-07-06 09:00:00 20.2 11.7 14.9--- 5830.0wxwxwx3wx--31011.9 986.6 -0.5---------
2019-07-06 08:00:00 18.6 11.4 14.1--- 6330.0wxwxwx3wx--31012.4 987.0 -0.3---------
2019-07-06 07:00:00 18.1 11.2 13.8--- 6430.0wxwxwx3wx--31012.4 987.0 -0.3---------
2019-07-06 06:00:00 17.7 11.0 13.5 20.4 13.7 11 6530.0wxwxwx5wx--51012.6 987.1 -0.2- 0.012------
2019-07-06 05:00:00 16.7 11.2 13.2--- 7030.0wxwxwx3wx--31012.9 987.3 -0.2---------
2019-07-06 04:00:00 15.3 11.3 12.7--- 7730.0wx-wx2wx--21013.0 987.3 -0.3---------
2019-07-06 03:00:00 14.8 10.8 12.2--- 7730.0wx-wx2wx--21013.1 987.3 -0.4---------
2019-07-06 02:00:00 14.1 10.3 11.6--- 7830.0wx-wx2wx--21013.3 987.5 -0.1---------
2019-07-06 01:00:00 14.0 9.8 11.3--- 7630.0wx-wx3wx--31013.4 987.6 0.2---------
2019-07-06 00:00:00 15.2 9.3 11.6--- 6830.0wxwxwxwx3wx-1031013.4 987.7 0.4- 0.06------
12.2 ms

 

Print Friendly, PDF & Email